Airport Name : Cincinnati Muni Lunken Fld

Other Name : Lunken Fld

ICAO : KLUK

IATA : LUK

FAA : LUK

Latitude : 39.103333

Longitude : -84.418611

Country : United States

Local Date and Time : 26 Feb 2021 10:14

 

TAF (Terminal Aerodrome Forecast)

KLUK 261125Z 2612/2712 08008KT P6SM BKN250 FM261400 10010G18KT P6SM SCT250 FM262200 12009KT 6SM -SHRA OVC035 FM270100 14008KT 4SM -SHRA BR OVC013 FM270300 15008KT 3SM -SHRA BR OVC009

 

METAR (METeorological Aerodrome Report)

KLUK 261453Z VRB05KT 10SM CLR 04/M03 A3026 RMK AO2 SLP249 T00391033 58022

KLUK 261353Z 06005KT 10SM CLR 02/M02 A3029 RMK AO2 SLP259 T00171022

KLUK 261253Z 03003KT 10SM CLR M03/M04 A3030 RMK AO2 SLP265 T10281044

KLUK 261153Z 02005KT 10SM CLR M03/M04 A3032 RMK AO2 SLP273 T10281044 10011 21039 58007

To Charter a Jet Click here.